createdAt,value
2022-10-17T00:01:56.109Z,11.30
2022-10-17T00:04:22.724Z,8.95
2022-10-17T00:06:49.236Z,10.13
2022-10-17T00:09:15.896Z,8.07
2022-10-17T00:11:42.456Z,9.48
2022-10-17T00:14:08.957Z,11.52
2022-10-17T00:16:39.521Z,10.50
2022-10-17T00:19:07.208Z,11.02
2022-10-17T00:21:35.023Z,9.32
2022-10-17T00:24:01.632Z,13.65
2022-10-17T00:26:31.143Z,10.05
2022-10-17T00:28:57.680Z,9.90
2022-10-17T00:31:24.897Z,10.15
2022-10-17T00:33:51.962Z,13.15
2022-10-17T00:36:26.426Z,13.20
2022-10-17T00:38:55.685Z,11.40
2022-10-17T00:41:25.030Z,13.43
2022-10-17T00:43:53.187Z,14.05
2022-10-17T00:46:20.649Z,10.05
2022-10-17T00:48:49.085Z,11.80
2022-10-17T00:51:15.992Z,10.30
2022-10-17T00:53:42.559Z,15.32
2022-10-17T00:56:09.141Z,12.70
2022-10-17T00:58:35.786Z,11.25
2022-10-17T01:01:03.054Z,13.30
2022-10-17T01:03:29.632Z,12.85
2022-10-17T01:05:56.878Z,11.68
2022-10-17T01:08:23.599Z,14.25
2022-10-17T01:11:14.514Z,10.52
2022-10-17T01:13:54.313Z,11.93
2022-10-17T01:16:40.774Z,13.80
2022-10-17T01:19:40.896Z,13.07
2022-10-17T01:22:22.907Z,16.10
2022-10-17T01:25:13.718Z,13.05
2022-10-17T01:27:52.135Z,11.95
2022-10-17T01:30:43.141Z,11.85
2022-10-17T01:33:15.699Z,10.40
2022-10-17T01:35:50.363Z,12.85
2022-10-17T01:38:16.763Z,13.65
2022-10-17T01:40:49.022Z,14.10
2022-10-17T01:43:24.322Z,13.95
2022-10-17T01:45:58.903Z,13.60
2022-10-17T01:48:30.127Z,12.50
2022-10-17T01:51:17.157Z,12.07
2022-10-17T01:53:50.178Z,12.88
2022-10-17T01:56:17.886Z,13.50
2022-10-17T01:58:49.315Z,13.02
2022-10-17T02:01:16.733Z,15.45
2022-10-17T02:03:43.934Z,13.55
2022-10-17T02:06:10.671Z,12.93
2022-10-17T02:08:48.775Z,11.27
2022-10-17T02:11:18.813Z,12.60
2022-10-17T02:14:06.654Z,12.15
2022-10-17T02:16:42.243Z,14.73
2022-10-17T02:19:18.391Z,13.98
2022-10-17T02:22:01.659Z,14.63
2022-10-17T02:24:46.740Z,14.90
2022-10-17T02:27:37.979Z,15.45
2022-10-17T02:30:23.052Z,14.63
2022-10-17T02:32:56.886Z,18.30
2022-10-17T02:35:25.970Z,13.77
2022-10-17T02:37:53.399Z,12.88
2022-10-17T02:40:22.010Z,12.63
2022-10-17T02:42:49.235Z,13.98
2022-10-17T02:45:15.933Z,13.68
2022-10-17T02:47:54.410Z,11.80
2022-10-17T02:50:24.608Z,12.60
2022-10-17T02:53:09.308Z,12.85
2022-10-17T02:55:43.772Z,12.90
2022-10-17T02:58:23.625Z,12.15
2022-10-17T03:00:50.955Z,14.00
2022-10-17T03:03:26.173Z,12.50
2022-10-17T03:08:20.147Z,14.65
2022-10-17T03:10:46.929Z,13.75
2022-10-17T03:13:14.446Z,13.43
2022-10-17T03:15:41.363Z,20.02
2022-10-17T03:18:08.194Z,12.02
2022-10-17T03:20:34.739Z,16.63
2022-10-17T03:23:01.311Z,13.65
2022-10-17T03:25:28.055Z,14.65
2022-10-17T03:27:54.880Z,13.65
2022-10-17T03:30:21.380Z,11.02
2022-10-17T03:32:48.048Z,12.40
2022-10-17T03:35:14.952Z,12.25
2022-10-17T03:37:41.876Z,11.45
2022-10-17T03:40:08.792Z,12.50
2022-10-17T03:42:35.499Z,15.13
2022-10-17T03:45:01.988Z,10.82
2022-10-17T03:47:29.312Z,9.63
2022-10-17T03:49:56.023Z,13.85
2022-10-17T03:52:22.591Z,12.05
2022-10-17T03:54:50.799Z,13.05
2022-10-17T03:57:18.330Z,10.63
2022-10-17T03:59:44.888Z,11.75
2022-10-17T04:02:11.454Z,10.45
2022-10-17T04:04:38.008Z,12.15
2022-10-17T04:07:04.750Z,9.68
2022-10-17T04:09:31.294Z,8.55
2022-10-17T04:11:57.754Z,9.88
2022-10-17T04:14:24.238Z,13.65
2022-10-17T04:16:50.759Z,8.38
2022-10-17T04:19:17.284Z,9.73
2022-10-17T04:21:43.993Z,11.32
2022-10-17T04:24:11.714Z,10.13
2022-10-17T04:26:38.236Z,21.30
2022-10-17T04:29:04.764Z,12.48
2022-10-17T04:31:31.568Z,12.75
2022-10-17T04:33:58.046Z,15.35
2022-10-17T04:36:24.881Z,13.77
2022-10-17T04:38:51.355Z,11.32
2022-10-17T04:41:18.936Z,14.38
2022-10-17T04:43:48.618Z,14.00
2022-10-17T04:46:17.867Z,11.93
2022-10-17T04:48:44.383Z,10.52
2022-10-17T04:51:13.132Z,12.30
2022-10-17T04:53:40.354Z,11.30
2022-10-17T04:56:15.492Z,11.77
2022-10-17T05:01:14.078Z,11.75
2022-10-17T05:03:40.637Z,10.60
2022-10-17T05:06:12.450Z,12.93
2022-10-17T05:08:39.502Z,14.95
2022-10-17T05:11:16.181Z,12.00
2022-10-17T05:13:42.943Z,14.25
2022-10-17T05:16:09.770Z,15.15
2022-10-17T05:18:36.334Z,13.52
2022-10-17T05:21:05.767Z,13.07
2022-10-17T05:23:32.804Z,12.15
2022-10-17T05:25:59.402Z,10.38
2022-10-17T05:28:25.913Z,11.52
2022-10-17T05:30:52.412Z,12.07
2022-10-17T05:33:19.060Z,10.90
2022-10-17T05:35:45.620Z,12.80
2022-10-17T05:38:12.116Z,20.58
2022-10-17T05:40:39.445Z,14.48
2022-10-17T05:43:06.311Z,13.50
2022-10-17T05:45:33.064Z,16.10
2022-10-17T05:47:59.537Z,10.73
2022-10-17T05:50:26.099Z,10.93
2022-10-17T05:52:55.819Z,15.10
2022-10-17T05:55:22.850Z,7.85
2022-10-17T05:57:50.526Z,15.80
2022-10-17T06:00:17.285Z,12.25
2022-10-17T06:02:46.036Z,10.45
2022-10-17T06:05:13.272Z,17.30
2022-10-17T06:07:40.018Z,18.88
2022-10-17T06:10:06.985Z,17.83
2022-10-17T06:12:33.508Z,17.25
2022-10-17T06:15:00.138Z,18.20
2022-10-17T06:17:26.715Z,18.15
2022-10-17T06:19:53.419Z,18.65
2022-10-17T06:22:19.877Z,14.35
2022-10-17T06:24:46.388Z,14.57
2022-10-17T06:27:13.380Z,12.68
2022-10-17T06:29:40.096Z,18.50
2022-10-17T06:32:09.822Z,19.27
2022-10-17T06:34:39.119Z,17.00
2022-10-17T06:37:05.611Z,13.85
2022-10-17T06:39:34.054Z,20.73
2022-10-17T06:42:01.346Z,18.75
2022-10-17T06:44:31.619Z,17.05
2022-10-17T06:46:59.254Z,18.08
2022-10-17T06:49:26.062Z,15.10
2022-10-17T06:51:52.737Z,10.63
2022-10-17T06:54:19.284Z,16.92
2022-10-17T06:56:45.748Z,13.45
2022-10-17T06:59:12.378Z,15.30
2022-10-17T07:01:40.690Z,16.13
2022-10-17T07:04:09.650Z,20.58
2022-10-17T07:06:36.250Z,15.38
2022-10-17T07:09:03.319Z,10.95
2022-10-17T07:11:30.024Z,15.40
2022-10-17T07:13:56.525Z,11.68
2022-10-17T07:16:23.287Z,11.15
2022-10-17T07:18:51.249Z,9.88
2022-10-17T07:21:17.787Z,11.73
2022-10-17T07:23:44.311Z,12.18
2022-10-17T07:26:13.175Z,11.95
2022-10-17T07:28:41.675Z,13.43
2022-10-17T07:31:11.550Z,13.52
2022-10-17T07:33:38.310Z,13.20
2022-10-17T07:36:05.739Z,15.43
2022-10-17T07:38:32.769Z,16.05
2022-10-17T07:41:00.941Z,15.27
2022-10-17T07:43:28.248Z,15.43
2022-10-17T07:45:55.460Z,15.68
2022-10-17T07:48:23.501Z,16.13
2022-10-17T07:50:50.590Z,13.48
2022-10-17T07:53:17.255Z,15.05
2022-10-17T07:55:44.949Z,17.10
2022-10-17T07:58:11.487Z,17.85
2022-10-17T08:00:38.566Z,16.00
2022-10-17T08:03:05.932Z,18.75
2022-10-17T08:05:33.379Z,15.43
2022-10-17T08:07:59.993Z,16.00
2022-10-17T08:10:27.774Z,17.60
2022-10-17T08:12:55.353Z,17.75
2022-10-17T08:15:22.422Z,17.55
2022-10-17T08:17:48.911Z,17.10
2022-10-17T08:20:15.865Z,18.88
2022-10-17T08:22:42.401Z,22.30
2022-10-17T08:25:09.645Z,17.83
2022-10-17T08:27:36.137Z,18.17
2022-10-17T08:30:02.719Z,18.67
2022-10-17T08:32:29.773Z,15.25
2022-10-17T08:34:56.536Z,19.63
2022-10-17T08:37:23.670Z,16.67
2022-10-17T08:39:50.178Z,17.80
2022-10-17T08:42:38.136Z,16.73
2022-10-17T08:45:07.545Z,19.58
2022-10-17T08:47:36.374Z,15.10
2022-10-17T08:50:05.967Z,17.17
2022-10-17T08:52:38.738Z,16.85
2022-10-17T08:55:14.580Z,17.02
2022-10-17T08:57:41.235Z,17.95
2022-10-17T09:00:15.839Z,15.55
2022-10-17T09:03:02.229Z,17.65
2022-10-17T09:05:47.563Z,21.55
2022-10-17T09:08:40.326Z,16.02
2022-10-17T09:11:18.863Z,12.93
2022-10-17T09:14:04.917Z,18.02
2022-10-17T09:16:41.430Z,14.63
2022-10-17T09:19:25.046Z,14.30
2022-10-17T09:22:17.603Z,13.38
2022-10-17T09:24:58.207Z,11.90
2022-10-17T09:27:28.557Z,18.45
2022-10-17T09:30:40.091Z,14.05
2022-10-17T09:33:34.630Z,18.27
2022-10-17T09:36:05.775Z,12.18
2022-10-17T09:38:41.766Z,13.13
2022-10-17T09:41:42.849Z,13.13
2022-10-17T09:44:22.509Z,11.75
2022-10-17T09:46:48.964Z,10.93
2022-10-17T09:49:20.989Z,12.48
2022-10-17T09:51:48.204Z,11.00
2022-10-17T09:54:22.628Z,10.80
2022-10-17T09:57:04.614Z,15.57
2022-10-17T09:59:42.179Z,10.65
2022-10-17T10:02:23.119Z,13.70
2022-10-17T10:05:09.551Z,9.63
2022-10-17T10:07:38.548Z,11.20
2022-10-17T10:10:08.492Z,13.35
2022-10-17T10:12:38.038Z,14.25
2022-10-17T10:15:31.336Z,10.98
2022-10-17T10:17:57.934Z,12.43
2022-10-17T10:20:34.673Z,14.27
2022-10-17T10:23:18.410Z,9.57
2022-10-17T10:25:58.954Z,12.05
2022-10-17T10:28:31.450Z,11.98
2022-10-17T10:31:01.105Z,10.60
2022-10-17T10:33:29.912Z,9.95
2022-10-17T10:36:02.032Z,13.63
2022-10-17T10:38:29.204Z,8.52
2022-10-17T10:40:58.275Z,8.52
2022-10-17T10:43:38.107Z,6.97
2022-10-17T10:46:15.668Z,8.25
2022-10-17T10:48:51.040Z,8.18
2022-10-17T10:51:20.821Z,11.95
2022-10-17T10:53:51.813Z,9.98
2022-10-17T10:56:26.288Z,9.00
2022-10-17T10:59:08.387Z,14.23
2022-10-17T11:02:12.900Z,11.77
2022-10-17T11:04:47.825Z,12.50
2022-10-17T11:07:29.854Z,11.02
2022-10-17T11:10:14.446Z,9.75
2022-10-17T11:12:52.798Z,11.10
2022-10-17T11:15:40.941Z,12.73
2022-10-17T11:18:17.001Z,10.32
2022-10-17T11:21:04.743Z,13.48
2022-10-17T11:23:43.650Z,11.63
2022-10-17T11:26:31.717Z,9.63
2022-10-17T11:29:00.466Z,10.90
2022-10-17T11:31:38.752Z,9.20
2022-10-17T11:34:25.682Z,9.05
2022-10-17T11:36:56.775Z,10.50
2022-10-17T11:39:30.720Z,6.35
2022-10-17T11:42:07.323Z,7.57
2022-10-17T11:44:37.840Z,7.35
2022-10-17T11:47:04.553Z,6.88
2022-10-17T11:49:38.217Z,6.40
2022-10-17T11:52:56.038Z,8.70
2022-10-17T11:55:24.057Z,8.23
2022-10-17T11:57:53.018Z,6.80
2022-10-17T12:00:35.779Z,7.63
2022-10-17T12:03:13.848Z,6.28
2022-10-17T12:06:20.259Z,7.93
2022-10-17T12:09:02.152Z,8.57
2022-10-17T12:11:57.563Z,8.05
2022-10-17T12:14:46.710Z,6.68
2022-10-17T12:17:36.866Z,10.18
2022-10-17T12:20:23.520Z,7.43
2022-10-17T12:23:09.332Z,8.25
2022-10-17T12:25:42.632Z,11.18
2022-10-17T12:28:14.161Z,6.93
2022-10-17T12:31:03.644Z,10.13
2022-10-17T12:33:34.479Z,8.18
2022-10-17T12:36:22.187Z,6.05
2022-10-17T12:38:50.653Z,7.90
2022-10-17T12:41:17.784Z,8.43
2022-10-17T12:43:54.410Z,6.93
2022-10-17T12:46:45.129Z,7.30
2022-10-17T12:49:46.506Z,8.10
2022-10-17T12:52:22.262Z,9.43
2022-10-17T12:55:07.141Z,8.77
2022-10-17T12:57:51.664Z,5.78
2022-10-17T13:00:20.245Z,6.43
2022-10-17T13:02:47.692Z,5.85
2022-10-17T13:05:18.028Z,7.20
2022-10-17T13:07:45.286Z,6.88
2022-10-17T13:13:15.882Z,6.57
2022-10-17T13:15:47.118Z,5.78
2022-10-17T13:18:26.142Z,6.30
2022-10-17T13:21:03.297Z,7.93
2022-10-17T13:23:35.797Z,6.32
2022-10-17T13:26:06.249Z,5.68
2022-10-17T13:28:35.920Z,6.25
2022-10-17T13:31:06.101Z,3.58
2022-10-17T13:33:37.852Z,6.38
2022-10-17T13:36:07.629Z,9.25
2022-10-17T13:38:36.760Z,5.93
2022-10-17T13:41:34.187Z,5.97
2022-10-17T13:43:58.675Z,6.00
2022-10-17T13:46:39.234Z,10.50
2022-10-17T13:52:19.421Z,6.55
2022-10-17T13:54:48.433Z,7.80
2022-10-17T13:57:17.921Z,5.38
2022-10-17T13:59:47.768Z,5.65
2022-10-17T14:02:17.714Z,6.53
2022-10-17T14:05:15.211Z,7.28
2022-10-17T14:08:10.064Z,6.57
2022-10-17T14:10:37.595Z,6.97
2022-10-17T14:13:08.275Z,7.55
2022-10-17T14:15:36.673Z,3.72
2022-10-17T14:18:07.973Z,5.60
2022-10-17T14:23:37.628Z,6.57
2022-10-17T14:26:25.290Z,5.63
2022-10-17T14:29:07.890Z,6.90
2022-10-17T14:31:35.977Z,6.13
2022-10-17T14:34:04.464Z,6.07
2022-10-17T14:36:34.529Z,7.32
2022-10-17T14:39:01.867Z,8.32
2022-10-17T14:41:48.073Z,5.82
2022-10-17T14:44:35.574Z,7.38
2022-10-17T14:47:30.370Z,8.38
2022-10-17T14:49:52.573Z,5.88
2022-10-17T14:52:19.201Z,6.60
2022-10-17T14:54:49.477Z,5.18
2022-10-17T14:57:27.609Z,6.30
2022-10-17T14:59:57.823Z,5.30
2022-10-17T15:02:25.609Z,6.35
2022-10-17T15:04:52.779Z,8.50
2022-10-17T15:07:21.030Z,6.22
2022-10-17T15:09:49.311Z,8.40
2022-10-17T15:12:18.751Z,6.70
2022-10-17T15:14:47.327Z,6.47
2022-10-17T15:17:32.064Z,7.28
2022-10-17T15:19:59.055Z,10.60
2022-10-17T15:22:25.574Z,3.97
2022-10-17T15:24:52.270Z,7.47
2022-10-17T15:27:20.200Z,5.85
2022-10-17T15:29:47.238Z,5.35
2022-10-17T15:32:14.130Z,6.32
2022-10-17T15:34:41.317Z,4.35
2022-10-17T15:37:19.297Z,6.95
2022-10-17T15:39:53.073Z,10.52
2022-10-17T15:42:21.378Z,5.30
2022-10-17T15:44:49.977Z,5.72
2022-10-17T15:47:30.978Z,5.00
2022-10-17T15:49:57.805Z,4.20
2022-10-17T15:52:24.668Z,5.30
2022-10-17T15:54:51.414Z,6.00
2022-10-17T15:57:20.639Z,5.85
2022-10-17T15:59:48.127Z,5.13
2022-10-17T16:02:15.653Z,7.30
2022-10-17T16:04:42.522Z,6.78
2022-10-17T16:07:09.205Z,8.13
2022-10-17T16:09:37.436Z,12.55
2022-10-17T16:12:12.321Z,5.07
2022-10-17T16:14:38.973Z,8.30
2022-10-17T16:17:05.608Z,3.78
2022-10-17T16:19:32.116Z,5.47
2022-10-17T16:22:04.287Z,5.43
2022-10-17T16:24:31.259Z,7.72
2022-10-17T16:26:57.777Z,5.78
2022-10-17T16:29:24.257Z,8.50
2022-10-17T16:31:50.819Z,6.60
2022-10-17T16:34:17.330Z,10.80
2022-10-17T16:36:43.986Z,6.07
2022-10-17T16:39:11.104Z,7.30
2022-10-17T16:41:38.903Z,5.85
2022-10-17T16:44:07.669Z,6.53
2022-10-17T16:46:36.802Z,8.88
2022-10-17T16:49:04.700Z,8.65
2022-10-17T16:51:33.637Z,6.13
2022-10-17T16:54:00.367Z,6.40
2022-10-17T16:56:32.586Z,10.90
2022-10-17T16:59:00.221Z,8.48
2022-10-17T17:01:26.799Z,6.30
2022-10-17T17:03:53.547Z,9.27
2022-10-17T17:06:24.329Z,12.88
2022-10-17T17:08:51.187Z,10.32
2022-10-17T17:11:19.639Z,6.93
2022-10-17T17:13:46.707Z,8.48
2022-10-17T17:16:16.201Z,7.18
2022-10-17T17:18:43.503Z,8.05
2022-10-17T17:21:10.868Z,10.30
2022-10-17T17:23:39.448Z,9.98
2022-10-17T17:26:18.387Z,8.15
2022-10-17T17:28:45.516Z,7.72
2022-10-17T17:31:16.306Z,7.32
2022-10-17T17:33:43.293Z,5.82
2022-10-17T17:36:13.874Z,13.43
2022-10-17T17:38:41.480Z,8.35
2022-10-17T17:41:08.210Z,6.70
2022-10-17T17:43:35.691Z,6.22
2022-10-17T17:46:02.703Z,8.38
2022-10-17T17:48:29.437Z,9.07
2022-10-17T17:50:56.109Z,4.50
2022-10-17T17:53:23.096Z,6.30
2022-10-17T17:56:01.259Z,10.43
2022-10-17T17:58:27.857Z,10.23
2022-10-17T18:00:54.429Z,6.88
2022-10-17T18:03:20.980Z,7.65
2022-10-17T18:05:47.502Z,6.88
2022-10-17T18:08:13.976Z,10.85
2022-10-17T18:10:40.475Z,7.50
2022-10-17T18:13:07.210Z,6.97
2022-10-17T18:15:33.738Z,6.18
2022-10-17T18:18:00.401Z,14.95
2022-10-17T18:20:27.802Z,10.38
2022-10-17T18:22:54.309Z,5.72
2022-10-17T18:25:20.832Z,11.85
2022-10-17T18:27:47.997Z,8.75
2022-10-17T18:30:14.809Z,10.45
2022-10-17T18:32:41.274Z,6.90
2022-10-17T18:35:08.025Z,10.65
2022-10-17T18:37:34.619Z,8.35
2022-10-17T18:40:03.089Z,10.43
2022-10-17T18:42:30.082Z,9.02
2022-10-17T18:44:56.819Z,7.93
2022-10-17T18:47:23.307Z,10.40
2022-10-17T18:49:49.999Z,9.27
2022-10-17T18:52:16.495Z,13.45
2022-10-17T18:54:43.064Z,9.18
2022-10-17T18:57:09.613Z,10.80
2022-10-17T18:59:37.011Z,10.48
2022-10-17T19:02:03.548Z,8.63
2022-10-17T19:04:30.151Z,9.20
2022-10-17T19:06:56.609Z,9.95
2022-10-17T19:09:23.098Z,9.05
2022-10-17T19:11:49.743Z,9.85
2022-10-17T19:14:16.317Z,10.80
2022-10-17T19:16:45.791Z,11.00
2022-10-17T19:19:15.444Z,8.23
2022-10-17T19:21:42.309Z,7.75
2022-10-17T19:24:13.368Z,9.10
2022-10-17T19:26:41.088Z,9.35
2022-10-17T19:29:07.796Z,12.15
2022-10-17T19:31:35.424Z,9.80
2022-10-17T19:34:01.982Z,9.13
2022-10-17T19:36:33.181Z,14.20
2022-10-17T19:39:05.615Z,9.00
2022-10-17T19:41:32.408Z,12.18
2022-10-17T19:44:00.658Z,8.75
2022-10-17T19:46:28.668Z,10.45
2022-10-17T19:48:55.534Z,10.35
2022-10-17T19:51:26.429Z,11.48
2022-10-17T19:53:55.011Z,9.15
2022-10-17T19:56:22.601Z,13.05
2022-10-17T19:58:49.993Z,10.13
2022-10-17T20:01:22.784Z,14.50
2022-10-17T20:03:49.525Z,12.05
2022-10-17T20:06:17.104Z,12.77
2022-10-17T20:08:44.131Z,12.30
2022-10-17T20:11:29.328Z,14.50
2022-10-17T20:13:56.390Z,14.55
2022-10-17T20:16:25.396Z,12.43
2022-10-17T20:18:54.764Z,15.18
2022-10-17T20:21:24.867Z,13.27
2022-10-17T20:23:51.571Z,15.60
2022-10-17T20:26:36.950Z,20.40
2022-10-17T20:29:12.564Z,18.60
2022-10-17T20:31:40.220Z,11.80
2022-10-17T20:34:06.990Z,13.27
2022-10-17T20:36:37.024Z,14.07
2022-10-17T20:39:04.922Z,13.00
2022-10-17T20:41:31.402Z,15.25
2022-10-17T20:43:57.910Z,13.68
2022-10-17T20:46:36.422Z,11.55
2022-10-17T20:49:05.843Z,10.88
2022-10-17T20:51:32.607Z,15.10
2022-10-17T20:53:59.115Z,14.05
2022-10-17T20:56:28.108Z,13.27
2022-10-17T20:58:58.454Z,15.02
2022-10-17T21:01:26.020Z,15.57
2022-10-17T21:03:52.835Z,17.00
2022-10-17T21:06:19.978Z,15.57
2022-10-17T21:08:47.339Z,15.05
2022-10-17T21:11:17.512Z,16.80
2022-10-17T21:13:44.739Z,13.43
2022-10-17T21:16:17.371Z,11.52
2022-10-17T21:18:44.406Z,12.30
2022-10-17T21:21:14.361Z,15.02
2022-10-17T21:23:42.562Z,13.15
2022-10-17T21:26:10.292Z,12.75
2022-10-17T21:28:37.860Z,14.60
2022-10-17T21:31:11.593Z,17.15
2022-10-17T21:33:38.760Z,14.93
2022-10-17T21:36:06.141Z,12.35
2022-10-17T21:38:35.847Z,20.95
2022-10-17T21:41:02.407Z,15.80
2022-10-17T21:43:28.942Z,18.08
2022-10-17T21:45:55.444Z,13.15
2022-10-17T21:48:21.981Z,20.73
2022-10-17T21:50:48.479Z,22.67
2022-10-17T21:53:14.996Z,16.05
2022-10-17T21:55:41.528Z,17.63
2022-10-17T21:58:08.015Z,20.70
2022-10-17T22:00:34.572Z,18.73
2022-10-17T22:03:01.101Z,20.80
2022-10-17T22:05:27.648Z,20.48
2022-10-17T22:07:54.291Z,19.52
2022-10-17T22:10:20.751Z,18.98
2022-10-17T22:12:47.275Z,18.85
2022-10-17T22:17:41.218Z,19.35
2022-10-17T22:20:08.130Z,21.70
2022-10-17T22:22:34.633Z,22.67
2022-10-17T22:25:01.102Z,20.25
2022-10-17T22:27:27.716Z,19.70
2022-10-17T22:29:54.229Z,19.20
2022-10-17T22:32:22.524Z,21.23
2022-10-17T22:34:49.295Z,21.08
2022-10-17T22:37:15.897Z,22.15
2022-10-17T22:39:42.419Z,29.27
2022-10-17T22:42:08.978Z,27.70
2022-10-17T22:44:35.696Z,27.17
2022-10-17T22:47:02.613Z,29.38
2022-10-17T22:49:29.094Z,25.40
2022-10-17T22:51:55.552Z,24.10
2022-10-17T22:54:22.023Z,24.40
2022-10-17T22:56:48.495Z,24.77
2022-10-17T22:59:15.360Z,24.88
2022-10-17T23:01:41.905Z,26.48
2022-10-17T23:04:08.502Z,24.65
2022-10-17T23:06:35.132Z,21.63
2022-10-17T23:09:01.812Z,28.30
2022-10-17T23:11:28.302Z,26.17
2022-10-17T23:13:54.796Z,26.83
2022-10-17T23:16:21.323Z,24.73
2022-10-17T23:18:48.197Z,19.75
2022-10-17T23:21:14.832Z,26.17
2022-10-17T23:23:41.334Z,24.88
2022-10-17T23:26:12.897Z,25.05
2022-10-17T23:28:40.275Z,25.27
2022-10-17T23:31:18.473Z,22.90
2022-10-17T23:33:46.232Z,30.15
2022-10-17T23:36:14.697Z,23.35
2022-10-17T23:38:42.728Z,25.85
2022-10-17T23:41:09.756Z,27.83
2022-10-17T23:43:36.508Z,33.28
2022-10-17T23:46:04.372Z,23.23
2022-10-17T23:48:30.932Z,32.28
2022-10-17T23:50:57.421Z,27.23
2022-10-17T23:53:24.344Z,30.95
2022-10-17T23:55:51.104Z,25.67
2022-10-17T23:58:18.024Z,25.10
